»·PEaware :: SWA3800 KLAS-KONT

SWA3800 :: KLAS-KONT

FLIGHT INFORMATION

Flight Status: Arrived
Operator:
Southwest Airlines
More flights by this operator :: More flights under this callsign
Pilot: Steve P. (28919)
Aircraft: BOEING 737-200
(B732)
More flights by this aircraft type
Origin: KLAS McCarran Intl
United States
Destination: KONT Ontario Intl
United States
More flights between these airports :: More routes between these airports
Route: +MCCRN5 HEC ZIGGY7
File this flight plan on PilotEdge
Remarks:
Altitude:
(Current/Filed)
22,000ft
Speed:
(Current/Filed)
440kts
Departed: 10-May-20 06:39 PM
Arrived: 10-May-20 07:27 PM
Distance/Time
Traveled:
171nm/0:47
Distance/Time
To Go:
Arrived

Flight Plot

Page will automatically refresh every two minutes.


Map Options




Map Legend


Flown Route
Filed Route
Departure Airport
Arrival Airport
Navaid (VOR, NDB)
Fix

Horizontal Profiles

Position Reports

Time Latitude Longitude Heading Altitude Ground
Speed
10-May-20 18:03 36.080181 -115.145656 270 2093ft 0kts
10-May-20 18:04 36.080181 -115.145656 270 2093ft 0kts
10-May-20 18:05 36.080181 -115.145656 270 2093ft 0kts
10-May-20 18:06 36.080181 -115.145656 270 2093ft 0kts
10-May-20 18:07 36.080181 -115.145656 270 2093ft 0kts
10-May-20 18:08 36.080181 -115.145656 270 2093ft 0kts
10-May-20 18:09 36.080181 -115.145656 270 2093ft 0kts
10-May-20 18:10 36.080181 -115.145656 270 2093ft 0kts
10-May-20 18:11 36.080181 -115.145656 270 2093ft 0kts
10-May-20 18:12 36.080181 -115.145656 270 2093ft 0kts
10-May-20 18:13 36.080181 -115.145656 270 2093ft 0kts
10-May-20 18:14 36.080181 -115.145656 270 2093ft 0kts
10-May-20 18:15 36.080181 -115.145656 270 2093ft 0kts
10-May-20 18:16 36.080181 -115.145656 270 2093ft 0kts
10-May-20 18:17 36.080181 -115.145656 270 2093ft 0kts
10-May-20 18:18 36.080181 -115.145656 270 2093ft 0kts
10-May-20 18:19 36.080181 -115.145656 270 2093ft 0kts
10-May-20 18:20 36.080181 -115.145656 270 2093ft 0kts
10-May-20 18:21 36.080181 -115.145656 270 2093ft 0kts
10-May-20 18:22 36.080181 -115.145656 270 2093ft 0kts
10-May-20 18:23 36.080223 -115.145452 269 2093ft 2kts
10-May-20 18:24 36.080393 -115.144873 203 2091ft 2kts
10-May-20 18:25 36.080540 -115.144837 179 2090ft 0kts
10-May-20 18:26 36.080540 -115.144837 179 2090ft 0kts
10-May-20 18:27 36.080540 -115.144837 179 2090ft 0kts
10-May-20 18:28 36.080540 -115.144837 179 2090ft 0kts
10-May-20 18:29 36.080540 -115.144837 179 2090ft 0kts
10-May-20 18:30 36.078444 -115.144408 125 2093ft 13kts
10-May-20 18:31 36.078301 -115.136861 89 2070ft 29kts
10-May-20 18:32 36.078279 -115.127132 89 2044ft 31kts
10-May-20 18:33 36.078076 -115.122409 124 2037ft 0kts
10-May-20 18:34 36.078075 -115.122409 124 2037ft 0kts
10-May-20 18:35 36.077530 -115.121546 134 2038ft 0kts
10-May-20 18:36 36.077530 -115.121546 134 2038ft 0kts
10-May-20 18:37 36.077518 -115.121532 136 2038ft 1kts
10-May-20 18:38 36.076360 -115.126106 269 2046ft 72kts
10-May-20 18:39 36.076630 -115.181596 262 3205ft 199kts
10-May-20 18:40 36.068645 -115.244430 211 5738ft 200kts
10-May-20 18:41 36.012846 -115.274369 202 7019ft 252kts
10-May-20 18:42 35.944338 -115.308470 202 9192ft 266kts
10-May-20 18:43 35.875240 -115.342420 202 11588ft 272kts
10-May-20 18:44 35.799411 -115.361305 191 13344ft 296kts
10-May-20 18:45 35.714549 -115.378538 191 14894ft 318kts
10-May-20 18:46 35.627933 -115.401466 205 16715ft 321kts
10-May-20 18:47 35.554184 -115.464179 220 18282ft 327kts
10-May-20 18:48 35.485325 -115.541346 225 19443ft 341kts
10-May-20 18:49 35.418985 -115.629237 228 20325ft 365kts
10-May-20 18:50 35.353115 -115.726329 230 21686ft 369kts
10-May-20 18:51 35.285162 -115.827147 229 21911ft 398kts
10-May-20 18:52 35.209756 -115.932045 227 21912ft 422kts
10-May-20 18:53 35.127600 -116.037716 225 21909ft 431kts
10-May-20 18:54 35.042968 -116.141053 222 21906ft 427kts
10-May-20 18:55 34.959518 -116.239577 228 21908ft 395kts
10-May-20 18:56 34.891315 -116.337084 230 21130ft 362kts
10-May-20 18:57 34.823766 -116.427857 226 19034ft 361kts
10-May-20 18:58 34.756190 -116.516092 230 17267ft 352kts
10-May-20 18:59 34.691010 -116.603470 227 15497ft 346kts
10-May-20 19:00 34.623206 -116.685500 222 13794ft 340kts
10-May-20 19:01 34.555666 -116.764622 224 12164ft 334kts
10-May-20 19:02 34.494083 -116.841034 225 11875ft 295kts
10-May-20 19:03 34.439819 -116.909160 225 11897ft 265kts
10-May-20 19:04 34.390850 -116.970498 225 11927ft 244kts
10-May-20 19:05 34.344088 -117.025976 218 11966ft 228kts
10-May-20 19:06 34.296265 -117.072964 219 11987ft 214kts
10-May-20 19:07 34.253216 -117.121148 223 11998ft 209kts
10-May-20 19:08 34.212413 -117.173266 225 11309ft 220kts
10-May-20 19:09 34.170251 -117.227963 225 10590ft 220kts
10-May-20 19:10 34.127526 -117.280721 224 9881ft 217kts
10-May-20 19:11 34.084297 -117.331341 224 8595ft 214kts
10-May-20 19:12 34.043489 -117.379672 225 7963ft 182kts
10-May-20 19:13 34.006806 -117.423820 225 6492ft 200kts
10-May-20 19:14 33.966089 -117.472685 226 5125ft 207kts
10-May-20 19:15 33.929804 -117.449517 94 4968ft 193kts
10-May-20 19:16 33.930695 -117.382949 92 5020ft 215kts
10-May-20 19:17 33.931752 -117.307509 91 4996ft 230kts
10-May-20 19:18 33.972251 -117.263030 2 4997ft 221kts
10-May-20 19:19 34.025714 -117.280206 303 4993ft 201kts
10-May-20 19:20 34.053906 -117.334554 279 4942ft 176kts
10-May-20 19:21 34.057872 -117.391894 267 4132ft 161kts
10-May-20 19:22 34.057267 -117.443063 265 3206ft 142kts
10-May-20 19:23 34.056746 -117.491010 267 2488ft 146kts
10-May-20 19:24 34.056897 -117.540019 268 1654ft 143kts
10-May-20 19:25 34.056907 -117.585002 267 944ft 114kts
10-May-20 19:26 34.057773 -117.599849 356 935ft 0kts
10-May-20 19:27 34.058606 -117.599862 0 938ft 9kts
10-May-20 19:28 34.059849 -117.599567 18 940ft 2kts
10-May-20 19:29 34.060019 -117.599492 22 941ft 0kts

Navigation Log

Ident Type
Flight plan parsing failed, navigation log unavailable